Accueil
METAR-TAF:

METAR-TAF

Aéroports :

RAF

Spadeadam, Angleterre

latitude: 55-03N, longitude: 002-33W, altitude: 325 m

Observation

Le bulletin a été fait il y a 44 minutes, à 13:50 UTC
Vent 15 kt de ouest/sud-ouest
Température 5°C
Humidité 100%
Pression 998 hPa
Visibilité 10 km ou plus

METAR: EGOM 261350Z AUTO 25015KT 9999 BKN003/// BKN011/// 05/05 Q0998 RERA

Heure: 14:34 (14:34 UTC)


TAF: absent

Observations et prévisions météorologiques de plus de 4000 aéroports (messages METAR et TAF).

Les stations disponibles sont représentées par des disques jaunes et rouges sur la carte.

Passer la souris dessus pour voir le nom de la station.

Cliquer dessus pour voir les observations et prévisions météorologiques.

Pour changer de carte: cliquez sur les boutons verts avec une croix noire pour zoomer, sur le bouton vert avec un tiret pour effectuer un zoom arrière, ou sur les flèches vertes pour les cartes adjacentes.


METAR-TAF: